sensor_id;sensor_type;location;lat;lon;timestamp;pressure;altitude;pressure_sealevel;temperature;humidity
34742;BME280;20968;42.696;23.360;2023-06-04T00:00:46;95378.09;;;19.38;72.78
34742;BME280;20968;42.696;23.360;2023-06-04T00:03:11;95373.13;;;19.31;73.06
34742;BME280;20968;42.696;23.360;2023-06-04T00:05:37;95369.78;;;19.33;72.84
34742;BME280;20968;42.696;23.360;2023-06-04T00:08:02;95365.72;;;19.34;72.69
34742;BME280;20968;42.696;23.360;2023-06-04T00:10:28;95376.03;;;19.39;73.05
34742;BME280;20968;42.696;23.360;2023-06-04T00:12:53;95377.44;;;19.32;72.78
34742;BME280;20968;42.696;23.360;2023-06-04T00:15:18;95369.88;;;19.27;72.87
34742;BME280;20968;42.696;23.360;2023-06-04T00:17:44;95369.13;;;19.27;72.63
34742;BME280;20968;42.696;23.360;2023-06-04T00:20:10;95373.31;;;19.33;72.88
34742;BME280;20968;42.696;23.360;2023-06-04T00:22:36;95375.91;;;19.31;72.79
34742;BME280;20968;42.696;23.360;2023-06-04T00:25:01;95370.31;;;19.31;72.99
34742;BME280;20968;42.696;23.360;2023-06-04T00:27:27;95365.78;;;19.28;72.79
34742;BME280;20968;42.696;23.360;2023-06-04T00:29:52;95359.97;;;19.26;72.88
34742;BME280;20968;42.696;23.360;2023-06-04T00:32:18;95364.28;;;19.27;73.00
34742;BME280;20968;42.696;23.360;2023-06-04T00:34:43;95365.25;;;19.30;73.11
34742;BME280;20968;42.696;23.360;2023-06-04T00:37:15;95352.09;;;19.12;73.69
34742;BME280;20968;42.696;23.360;2023-06-04T00:39:40;95356.59;;;19.15;73.58
34742;BME280;20968;42.696;23.360;2023-06-04T00:42:06;95364.50;;;18.92;74.57
34742;BME280;20968;42.696;23.360;2023-06-04T00:44:31;95352.25;;;18.77;75.33
34742;BME280;20968;42.696;23.360;2023-06-04T00:46:57;95357.94;;;18.90;75.30
34742;BME280;20968;42.696;23.360;2023-06-04T00:49:23;95362.16;;;18.96;74.92
34742;BME280;20968;42.696;23.360;2023-06-04T00:51:48;95355.28;;;18.97;75.10
34742;BME280;20968;42.696;23.360;2023-06-04T00:54:15;95364.75;;;18.94;75.52
34742;BME280;20968;42.696;23.360;2023-06-04T00:56:41;95357.78;;;19.01;75.24
34742;BME280;20968;42.696;23.360;2023-06-04T00:59:08;95364.56;;;19.05;74.77
34742;BME280;20968;42.696;23.360;2023-06-04T01:01:49;95360.47;;;19.12;75.05
34742;BME280;20968;42.696;23.360;2023-06-04T01:04:22;95362.75;;;19.08;74.60
34742;BME280;20968;42.696;23.360;2023-06-04T01:06:50;95360.56;;;19.01;74.95
34742;BME280;20968;42.696;23.360;2023-06-04T01:09:19;95357.72;;;18.88;75.48
34742;BME280;20968;42.696;23.360;2023-06-04T01:11:45;95366.53;;;18.92;75.19
34742;BME280;20968;42.696;23.360;2023-06-04T01:14:11;95369.31;;;18.92;75.46
34742;BME280;20968;42.696;23.360;2023-06-04T01:16:45;95351.81;;;18.73;75.88
34742;BME280;20968;42.696;23.360;2023-06-04T01:22:36;95364.03;;;18.70;75.67
34742;BME280;20968;42.696;23.360;2023-06-04T01:25:05;95363.59;;;18.66;75.68
34742;BME280;20968;42.696;23.360;2023-06-04T01:27:31;95346.97;;;18.55;76.08
34742;BME280;20968;42.696;23.360;2023-06-04T01:29:58;95352.78;;;18.57;76.37
34742;BME280;20968;42.696;23.360;2023-06-04T01:32:24;95367.19;;;18.61;76.27
34742;BME280;20968;42.696;23.360;2023-06-04T01:34:51;95362.50;;;18.51;76.14
34742;BME280;20968;42.696;23.360;2023-06-04T01:37:23;95373.44;;;18.49;76.19
34742;BME280;20968;42.696;23.360;2023-06-04T01:39:49;95367.16;;;18.43;75.71
34742;BME280;20968;42.696;23.360;2023-06-04T01:42:15;95381.94;;;18.38;76.27
34742;BME280;20968;42.696;23.360;2023-06-04T01:44:40;95375.00;;;18.44;75.50
34742;BME280;20968;42.696;23.360;2023-06-04T01:47:05;95370.13;;;18.50;75.30
34742;BME280;20968;42.696;23.360;2023-06-04T01:49:31;95372.31;;;18.57;75.52
34742;BME280;20968;42.696;23.360;2023-06-04T01:51:56;95374.84;;;18.37;75.71
34742;BME280;20968;42.696;23.360;2023-06-04T01:54:21;95377.81;;;18.44;75.28
34742;BME280;20968;42.696;23.360;2023-06-04T01:56:47;95377.41;;;18.53;75.06
34742;BME280;20968;42.696;23.360;2023-06-04T01:59:13;95380.94;;;18.35;75.91
34742;BME280;20968;42.696;23.360;2023-06-04T02:01:41;95380.84;;;18.22;76.21
34742;BME280;20968;42.696;23.360;2023-06-04T02:04:07;95379.41;;;18.10;77.08
34742;BME280;20968;42.696;23.360;2023-06-04T02:06:32;95378.94;;;18.06;77.06
34742;BME280;20968;42.696;23.360;2023-06-04T02:08:57;95379.41;;;18.10;77.41
34742;BME280;20968;42.696;23.360;2023-06-04T02:11:23;95378.81;;;18.17;77.02
34742;BME280;20968;42.696;23.360;2023-06-04T02:13:48;95383.09;;;18.24;76.84
34742;BME280;20968;42.696;23.360;2023-06-04T02:16:14;95379.78;;;18.25;77.25
34742;BME280;20968;42.696;23.360;2023-06-04T02:18:39;95381.34;;;18.21;76.95
34742;BME280;20968;42.696;23.360;2023-06-04T02:21:05;95380.31;;;18.18;77.01
34742;BME280;20968;42.696;23.360;2023-06-04T02:23:31;95392.50;;;18.15;77.21
34742;BME280;20968;42.696;23.360;2023-06-04T02:25:56;95394.81;;;18.17;77.29
34742;BME280;20968;42.696;23.360;2023-06-04T02:28:22;95392.44;;;17.97;78.08
34742;BME280;20968;42.696;23.360;2023-06-04T02:30:47;95395.75;;;17.95;77.58
34742;BME280;20968;42.696;23.360;2023-06-04T02:33:13;95397.84;;;17.90;78.13
34742;BME280;20968;42.696;23.360;2023-06-04T02:35:39;95400.59;;;17.95;78.02
34742;BME280;20968;42.696;23.360;2023-06-04T02:38:05;95407.28;;;18.10;77.57
34742;BME280;20968;42.696;23.360;2023-06-04T02:40:30;95404.31;;;18.03;77.97
34742;BME280;20968;42.696;23.360;2023-06-04T02:42:56;95410.09;;;18.05;77.93
34742;BME280;20968;42.696;23.360;2023-06-04T02:45:22;95402.56;;;18.00;78.02
34742;BME280;20968;42.696;23.360;2023-06-04T02:47:48;95412.09;;;18.10;77.69
34742;BME280;20968;42.696;23.360;2023-06-04T02:50:15;95414.69;;;18.02;78.46
34742;BME280;20968;42.696;23.360;2023-06-04T02:52:41;95407.75;;;18.14;78.04
34742;BME280;20968;42.696;23.360;2023-06-04T02:55:07;95416.34;;;18.16;77.38
34742;BME280;20968;42.696;23.360;2023-06-04T02:57:34;95426.16;;;18.28;77.46
34742;BME280;20968;42.696;23.360;2023-06-04T03:00:00;95427.41;;;18.27;77.11
34742;BME280;20968;42.696;23.360;2023-06-04T03:02:26;95436.22;;;18.31;76.61
34742;BME280;20968;42.696;23.360;2023-06-04T03:04:53;95423.22;;;18.39;76.47
34742;BME280;20968;42.696;23.360;2023-06-04T03:07:20;95429.44;;;18.51;76.38
34742;BME280;20968;42.696;23.360;2023-06-04T03:09:48;95428.69;;;18.50;76.51
34742;BME280;20968;42.696;23.360;2023-06-04T03:12:14;95430.97;;;18.52;76.37
34742;BME280;20968;42.696;23.360;2023-06-04T03:14:39;95434.91;;;18.62;76.15
34742;BME280;20968;42.696;23.360;2023-06-04T03:17:05;95432.28;;;18.69;76.08
34742;BME280;20968;42.696;23.360;2023-06-04T03:19:40;95427.41;;;18.75;75.54
34742;BME280;20968;42.696;23.360;2023-06-04T03:22:20;95426.50;;;18.67;75.55
34742;BME280;20968;42.696;23.360;2023-06-04T03:24:46;95436.81;;;18.72;75.46
34742;BME280;20968;42.696;23.360;2023-06-04T03:27:12;95437.06;;;18.74;75.74
34742;BME280;20968;42.696;23.360;2023-06-04T03:29:37;95444.72;;;18.68;75.48
34742;BME280;20968;42.696;23.360;2023-06-04T03:32:41;95439.66;;;18.67;75.82
34742;BME280;20968;42.696;23.360;2023-06-04T03:35:09;95433.69;;;18.57;76.35
34742;BME280;20968;42.696;23.360;2023-06-04T03:37:34;95442.75;;;18.63;76.60
34742;BME280;20968;42.696;23.360;2023-06-04T03:39:59;95448.50;;;18.71;76.59
34742;BME280;20968;42.696;23.360;2023-06-04T03:42:25;95448.50;;;18.71;76.14
34742;BME280;20968;42.696;23.360;2023-06-04T03:44:50;95457.28;;;18.80;76.01
34742;BME280;20968;42.696;23.360;2023-06-04T03:47:15;95455.75;;;18.79;76.02
34742;BME280;20968;42.696;23.360;2023-06-04T03:49:41;95451.94;;;18.82;75.69
34742;BME280;20968;42.696;23.360;2023-06-04T03:52:06;95455.22;;;18.80;75.86
34742;BME280;20968;42.696;23.360;2023-06-04T03:54:31;95465.34;;;18.83;75.88
34742;BME280;20968;42.696;23.360;2023-06-04T03:57:07;95456.69;;;18.87;75.64
34742;BME280;20968;42.696;23.360;2023-06-04T03:59:39;95463.25;;;18.89;75.53
34742;BME280;20968;42.696;23.360;2023-06-04T04:02:04;95466.22;;;18.97;75.56
34742;BME280;20968;42.696;23.360;2023-06-04T04:04:31;95470.03;;;18.94;75.33
34742;BME280;20968;42.696;23.360;2023-06-04T04:06:58;95460.16;;;18.93;75.61
34742;BME280;20968;42.696;23.360;2023-06-04T04:09:25;95472.38;;;18.90;75.51
34742;BME280;20968;42.696;23.360;2023-06-04T04:11:51;95473.06;;;18.96;75.75
34742;BME280;20968;42.696;23.360;2023-06-04T04:14:40;95474.78;;;18.99;75.51
34742;BME280;20968;42.696;23.360;2023-06-04T04:17:07;95477.59;;;18.99;75.77
34742;BME280;20968;42.696;23.360;2023-06-04T04:19:32;95469.50;;;18.95;75.36
34742;BME280;20968;42.696;23.360;2023-06-04T04:21:58;95472.84;;;18.94;75.72
34742;BME280;20968;42.696;23.360;2023-06-04T04:24:24;95484.94;;;19.02;75.50
34742;BME280;20968;42.696;23.360;2023-06-04T04:26:50;95473.59;;;18.94;75.86
34742;BME280;20968;42.696;23.360;2023-06-04T04:29:21;95477.97;;;18.90;76.35
34742;BME280;20968;42.696;23.360;2023-06-04T04:31:53;95476.41;;;18.71;77.43
34742;BME280;20968;42.696;23.360;2023-06-04T04:34:49;95478.31;;;18.81;76.83
34742;BME280;20968;42.696;23.360;2023-06-04T04:37:18;95485.88;;;18.86;76.91
34742;BME280;20968;42.696;23.360;2023-06-04T04:39:46;95475.78;;;18.83;77.08
34742;BME280;20968;42.696;23.360;2023-06-04T04:42:11;95475.97;;;18.85;76.79
34742;BME280;20968;42.696;23.360;2023-06-04T04:44:37;95479.25;;;18.89;77.02
34742;BME280;20968;42.696;23.360;2023-06-04T04:47:02;95472.84;;;18.94;76.59
34742;BME280;20968;42.696;23.360;2023-06-04T04:49:28;95475.88;;;18.96;76.78
34742;BME280;20968;42.696;23.360;2023-06-04T04:51:53;95471.31;;;18.93;76.40
34742;BME280;20968;42.696;23.360;2023-06-04T04:54:18;95473.47;;;19.05;76.20
34742;BME280;20968;42.696;23.360;2023-06-04T04:56:44;95473.31;;;18.98;75.85
34742;BME280;20968;42.696;23.360;2023-06-04T04:59:09;95478.66;;;18.96;76.57
34742;BME280;20968;42.696;23.360;2023-06-04T05:01:35;95482.03;;;18.89;76.62
34742;BME280;20968;42.696;23.360;2023-06-04T05:04:00;95484.59;;;18.87;76.09
34742;BME280;20968;42.696;23.360;2023-06-04T05:06:25;95489.53;;;18.75;76.42
34742;BME280;20968;42.696;23.360;2023-06-04T05:08:51;95486.22;;;18.77;76.30
34742;BME280;20968;42.696;23.360;2023-06-04T05:11:16;95484.56;;;18.69;76.54
34742;BME280;20968;42.696;23.360;2023-06-04T05:13:42;95482.28;;;18.67;77.10
34742;BME280;20968;42.696;23.360;2023-06-04T05:16:09;95487.97;;;18.80;77.01
34742;BME280;20968;42.696;23.360;2023-06-04T05:18:39;95487.50;;;18.76;75.33
34742;BME280;20968;42.696;23.360;2023-06-04T05:21:10;95488.81;;;18.75;74.82
34742;BME280;20968;42.696;23.360;2023-06-04T05:23:44;95498.38;;;18.79;74.94
34742;BME280;20968;42.696;23.360;2023-06-04T05:26:13;95496.09;;;18.78;74.63
34742;BME280;20968;42.696;23.360;2023-06-04T05:28:39;95483.97;;;18.75;74.45
34742;BME280;20968;42.696;23.360;2023-06-04T05:31:08;95491.44;;;18.86;74.63
34742;BME280;20968;42.696;23.360;2023-06-04T05:33:37;95489.50;;;18.81;74.66
34742;BME280;20968;42.696;23.360;2023-06-04T05:36:03;95502.38;;;18.84;75.03
34742;BME280;20968;42.696;23.360;2023-06-04T05:38:30;95501.59;;;18.89;74.80
34742;BME280;20968;42.696;23.360;2023-06-04T05:40:57;95503.91;;;18.85;74.63
34742;BME280;20968;42.696;23.360;2023-06-04T05:43:23;95494.19;;;18.91;74.63
34742;BME280;20968;42.696;23.360;2023-06-04T05:45:48;95501.34;;;18.87;73.99
34742;BME280;20968;42.696;23.360;2023-06-04T05:48:14;95501.22;;;18.98;72.97
34742;BME280;20968;42.696;23.360;2023-06-04T05:50:40;95504.69;;;19.09;74.16
34742;BME280;20968;42.696;23.360;2023-06-04T05:53:05;95514.00;;;19.36;73.48
34742;BME280;20968;42.696;23.360;2023-06-04T05:55:31;95520.41;;;19.49;72.79
34742;BME280;20968;42.696;23.360;2023-06-04T05:57:56;95518.22;;;19.60;71.75
34742;BME280;20968;42.696;23.360;2023-06-04T06:00:22;95524.09;;;19.75;71.43
34742;BME280;20968;42.696;23.360;2023-06-04T06:02:49;95524.72;;;19.68;70.49
34742;BME280;20968;42.696;23.360;2023-06-04T06:05:15;95532.72;;;19.77;70.44
34742;BME280;20968;42.696;23.360;2023-06-04T06:07:41;95537.94;;;19.68;69.73
34742;BME280;20968;42.696;23.360;2023-06-04T06:10:07;95528.19;;;19.56;70.18
34742;BME280;20968;42.696;23.360;2023-06-04T06:12:32;95534.31;;;19.54;70.11
34742;BME280;20968;42.696;23.360;2023-06-04T06:14:58;95530.22;;;19.37;70.21
34742;BME280;20968;42.696;23.360;2023-06-04T06:17:23;95531.78;;;19.33;70.86
34742;BME280;20968;42.696;23.360;2023-06-04T06:19:49;95539.94;;;19.31;70.58
34742;BME280;20968;42.696;23.360;2023-06-04T06:22:14;95541.00;;;19.28;70.49
34742;BME280;20968;42.696;23.360;2023-06-04T06:24:40;95536.34;;;19.36;70.80
34742;BME280;20968;42.696;23.360;2023-06-04T06:27:06;95537.09;;;19.36;70.29
34742;BME280;20968;42.696;23.360;2023-06-04T06:29:32;95532.03;;;19.35;70.40
34742;BME280;20968;42.696;23.360;2023-06-04T06:32:19;95538.59;;;19.37;70.36
34742;BME280;20968;42.696;23.360;2023-06-04T06:34:44;95530.59;;;19.28;70.45
34742;BME280;20968;42.696;23.360;2023-06-04T06:37:10;95535.50;;;19.41;70.38
34742;BME280;20968;42.696;23.360;2023-06-04T06:39:35;95541.53;;;19.45;70.45
34742;BME280;20968;42.696;23.360;2023-06-04T06:42:01;95535.75;;;19.43;69.66
34742;BME280;20968;42.696;23.360;2023-06-04T06:44:26;95534.97;;;19.42;69.63
34742;BME280;20968;42.696;23.360;2023-06-04T06:46:51;95542.84;;;19.44;69.20
34742;BME280;20968;42.696;23.360;2023-06-04T06:49:17;95538.53;;;19.43;69.12
34742;BME280;20968;42.696;23.360;2023-06-04T06:51:43;95536.66;;;19.51;68.83
34742;BME280;20968;42.696;23.360;2023-06-04T06:54:09;95546.53;;;19.52;68.46
34742;BME280;20968;42.696;23.360;2023-06-04T06:56:35;95533.94;;;19.45;69.25
34742;BME280;20968;42.696;23.360;2023-06-04T06:59:04;95548.50;;;19.56;69.77
34742;BME280;20968;42.696;23.360;2023-06-04T07:01:29;95556.59;;;19.60;70.06
34742;BME280;20968;42.696;23.360;2023-06-04T07:03:55;95553.34;;;19.74;69.79
34742;BME280;20968;42.696;23.360;2023-06-04T07:06:20;95551.53;;;19.77;69.12
34742;BME280;20968;42.696;23.360;2023-06-04T07:08:46;95545.97;;;19.77;69.32
34742;BME280;20968;42.696;23.360;2023-06-04T07:11:13;95554.63;;;19.92;69.37
34742;BME280;20968;42.696;23.360;2023-06-04T07:13:39;95559.41;;;19.97;68.85
34742;BME280;20968;42.696;23.360;2023-06-04T07:16:04;95556.25;;;20.06;68.71
34742;BME280;20968;42.696;23.360;2023-06-04T07:18:30;95563.03;;;20.10;68.68
34742;BME280;20968;42.696;23.360;2023-06-04T07:20:55;95564.75;;;20.13;68.60
34742;BME280;20968;42.696;23.360;2023-06-04T07:23:20;95570.81;;;20.17;68.04
34742;BME280;20968;42.696;23.360;2023-06-04T07:25:46;95569.16;;;20.27;68.48
34742;BME280;20968;42.696;23.360;2023-06-04T07:28:11;95578.81;;;20.26;68.48
34742;BME280;20968;42.696;23.360;2023-06-04T07:30:38;95570.03;;;20.17;68.09
34742;BME280;20968;42.696;23.360;2023-06-04T07:33:03;95587.84;;;20.19;68.74
34742;BME280;20968;42.696;23.360;2023-06-04T07:35:29;95578.03;;;20.26;68.66
34742;BME280;20968;42.696;23.360;2023-06-04T07:37:55;95582.81;;;20.31;68.49
34742;BME280;20968;42.696;23.360;2023-06-04T07:40:20;95583.09;;;20.45;67.78
34742;BME280;20968;42.696;23.360;2023-06-04T07:42:46;95584.34;;;20.63;67.26
34742;BME280;20968;42.696;23.360;2023-06-04T07:45:15;95594.44;;;20.66;67.22
34742;BME280;20968;42.696;23.360;2023-06-04T07:47:42;95588.84;;;20.66;67.42
34742;BME280;20968;42.696;23.360;2023-06-04T07:50:08;95589.44;;;20.77;67.41
34742;BME280;20968;42.696;23.360;2023-06-04T07:52:33;95591.41;;;20.82;67.78
34742;BME280;20968;42.696;23.360;2023-06-04T07:55:07;95598.22;;;20.87;67.69
34742;BME280;20968;42.696;23.360;2023-06-04T07:58:00;95595.56;;;21.07;66.93
34742;BME280;20968;42.696;23.360;2023-06-04T08:00:30;95594.13;;;21.01;66.12
34742;BME280;20968;42.696;23.360;2023-06-04T08:05:49;95598.13;;;21.05;65.83
34742;BME280;20968;42.696;23.360;2023-06-04T08:08:15;95598.78;;;21.11;66.08
34742;BME280;20968;42.696;23.360;2023-06-04T08:10:45;95598.69;;;21.29;65.71
34742;BME280;20968;42.696;23.360;2023-06-04T08:13:11;95599.00;;;21.26;65.57
34742;BME280;20968;42.696;23.360;2023-06-04T08:15:36;95598.59;;;21.35;65.62
34742;BME280;20968;42.696;23.360;2023-06-04T08:18:02;95599.56;;;21.37;65.41
34742;BME280;20968;42.696;23.360;2023-06-04T08:20:27;95589.63;;;21.36;65.37
34742;BME280;20968;42.696;23.360;2023-06-04T08:22:53;95597.72;;;21.53;65.41
34742;BME280;20968;42.696;23.360;2023-06-04T08:25:18;95592.88;;;21.40;63.48
34742;BME280;20968;42.696;23.360;2023-06-04T08:27:44;95600.41;;;21.45;65.18
34742;BME280;20968;42.696;23.360;2023-06-04T08:30:28;95605.19;;;21.63;65.47
34742;BME280;20968;42.696;23.360;2023-06-04T08:32:54;95602.94;;;21.75;65.72
34742;BME280;20968;42.696;23.360;2023-06-04T08:35:20;95603.88;;;21.77;64.85
34742;BME280;20968;42.696;23.360;2023-06-04T08:37:46;95602.38;;;21.76;64.38
34742;BME280;20968;42.696;23.360;2023-06-04T08:40:11;95608.81;;;21.97;64.10
34742;BME280;20968;42.696;23.360;2023-06-04T08:42:41;95611.53;;;21.77;63.65
34742;BME280;20968;42.696;23.360;2023-06-04T08:45:10;95613.38;;;21.61;64.81
34742;BME280;20968;42.696;23.360;2023-06-04T08:47:40;95608.34;;;21.60;64.09
34742;BME280;20968;42.696;23.360;2023-06-04T08:50:09;95612.94;;;21.44;64.11
34742;BME280;20968;42.696;23.360;2023-06-04T08:52:36;95619.16;;;21.50;64.11
34742;BME280;20968;42.696;23.360;2023-06-04T08:55:03;95620.28;;;21.60;65.36
34742;BME280;20968;42.696;23.360;2023-06-04T08:57:30;95629.25;;;21.72;64.33
34742;BME280;20968;42.696;23.360;2023-06-04T08:59:56;95632.34;;;21.81;64.43
34742;BME280;20968;42.696;23.360;2023-06-04T09:02:21;95633.22;;;21.76;62.45
34742;BME280;20968;42.696;23.360;2023-06-04T09:04:48;95629.34;;;21.66;62.82
34742;BME280;20968;42.696;23.360;2023-06-04T09:07:14;95632.03;;;21.72;62.69
34742;BME280;20968;42.696;23.360;2023-06-04T09:09:44;95631.47;;;21.99;62.78
34742;BME280;20968;42.696;23.360;2023-06-04T09:12:16;95636.22;;;21.91;62.50
34742;BME280;20968;42.696;23.360;2023-06-04T09:14:42;95637.38;;;22.08;61.41
34742;BME280;20968;42.696;23.360;2023-06-04T09:17:08;95629.94;;;22.11;62.03
34742;BME280;20968;42.696;23.360;2023-06-04T09:19:33;95635.38;;;22.29;61.63
34742;BME280;20968;42.696;23.360;2023-06-04T09:22:06;95636.72;;;22.15;60.33
34742;BME280;20968;42.696;23.360;2023-06-04T09:24:47;95643.84;;;22.16;59.17
34742;BME280;20968;42.696;23.360;2023-06-04T09:27:19;95628.13;;;22.13;59.42
34742;BME280;20968;42.696;23.360;2023-06-04T09:30:07;95628.50;;;22.43;59.08
34742;BME280;20968;42.696;23.360;2023-06-04T09:32:36;95641.53;;;22.41;57.50
34742;BME280;20968;42.696;23.360;2023-06-04T09:35:14;95634.88;;;22.64;60.05
34742;BME280;20968;42.696;23.360;2023-06-04T09:37:41;95638.53;;;22.72;57.53
34742;BME280;20968;42.696;23.360;2023-06-04T09:40:08;95631.41;;;22.91;57.66
34742;BME280;20968;42.696;23.360;2023-06-04T09:42:48;95635.91;;;22.94;58.13
34742;BME280;20968;42.696;23.360;2023-06-04T09:45:32;95630.72;;;22.98;58.71
34742;BME280;20968;42.696;23.360;2023-06-04T09:47:58;95642.44;;;22.89;57.71
34742;BME280;20968;42.696;23.360;2023-06-04T09:50:31;95632.66;;;23.03;57.59
34742;BME280;20968;42.696;23.360;2023-06-04T09:53:19;95636.03;;;23.22;56.42
34742;BME280;20968;42.696;23.360;2023-06-04T09:56:00;95628.47;;;23.17;56.27
34742;BME280;20968;42.696;23.360;2023-06-04T09:58:27;95621.34;;;23.16;57.38
34742;BME280;20968;42.696;23.360;2023-06-04T10:00:57;95634.19;;;23.32;55.99
34742;BME280;20968;42.696;23.360;2023-06-04T10:03:33;95620.50;;;23.29;57.23
34742;BME280;20968;42.696;23.360;2023-06-04T10:06:04;95628.66;;;23.40;57.28
34742;BME280;20968;42.696;23.360;2023-06-04T10:08:31;95635.66;;;23.46;55.66
34742;BME280;20968;42.696;23.360;2023-06-04T10:11:01;95629.66;;;23.50;55.66
34742;BME280;20968;42.696;23.360;2023-06-04T10:13:30;95620.47;;;23.77;54.71
34742;BME280;20968;42.696;23.360;2023-06-04T10:15:57;95619.84;;;23.71;55.03
34742;BME280;20968;42.696;23.360;2023-06-04T10:18:24;95628.84;;;23.69;55.86
34742;BME280;20968;42.696;23.360;2023-06-04T10:20:53;95614.44;;;23.73;55.03
34742;BME280;20968;42.696;23.360;2023-06-04T10:23:20;95619.72;;;24.12;55.21
34742;BME280;20968;42.696;23.360;2023-06-04T10:25:48;95624.19;;;24.50;52.71
34742;BME280;20968;42.696;23.360;2023-06-04T10:28:15;95626.16;;;24.27;54.61
34742;BME280;20968;42.696;23.360;2023-06-04T10:30:40;95625.13;;;24.02;53.77
34742;BME280;20968;42.696;23.360;2023-06-04T10:33:06;95613.97;;;23.89;53.95
34742;BME280;20968;42.696;23.360;2023-06-04T10:35:34;95614.69;;;23.82;54.42
34742;BME280;20968;42.696;23.360;2023-06-04T10:38:14;95616.78;;;23.89;55.79
34742;BME280;20968;42.696;23.360;2023-06-04T10:40:57;95620.38;;;23.90;54.55
34742;BME280;20968;42.696;23.360;2023-06-04T10:43:29;95617.56;;;23.90;55.53
34742;BME280;20968;42.696;23.360;2023-06-04T10:45:54;95616.47;;;24.00;55.99
34742;BME280;20968;42.696;23.360;2023-06-04T10:48:20;95614.16;;;23.84;55.07
34742;BME280;20968;42.696;23.360;2023-06-04T10:50:50;95615.28;;;23.88;55.50
34742;BME280;20968;42.696;23.360;2023-06-04T10:53:18;95609.81;;;23.55;54.90
34742;BME280;20968;42.696;23.360;2023-06-04T10:55:45;95611.97;;;23.69;55.21
34742;BME280;20968;42.696;23.360;2023-06-04T10:58:11;95618.88;;;23.96;55.20
34742;BME280;20968;42.696;23.360;2023-06-04T11:00:46;95608.84;;;24.16;53.71
34742;BME280;20968;42.696;23.360;2023-06-04T11:03:17;95606.44;;;24.20;53.38
34742;BME280;20968;42.696;23.360;2023-06-04T11:05:46;95608.06;;;24.50;53.32
34742;BME280;20968;42.696;23.360;2023-06-04T11:08:13;95614.84;;;24.62;53.11
34742;BME280;20968;42.696;23.360;2023-06-04T11:10:45;95602.84;;;24.62;54.56
34742;BME280;20968;42.696;23.360;2023-06-04T11:13:12;95608.53;;;24.34;52.48
34742;BME280;20968;42.696;23.360;2023-06-04T11:18:13;95613.13;;;24.44;53.40
34742;BME280;20968;42.696;23.360;2023-06-04T11:20:39;95616.81;;;24.39;53.19
34742;BME280;20968;42.696;23.360;2023-06-04T11:23:04;95608.88;;;24.23;52.63
34742;BME280;20968;42.696;23.360;2023-06-04T11:25:31;95617.28;;;24.16;53.61
34742;BME280;20968;42.696;23.360;2023-06-04T11:27:59;95608.53;;;24.34;53.51
34742;BME280;20968;42.696;23.360;2023-06-04T11:30:27;95615.97;;;24.17;52.06
34742;BME280;20968;42.696;23.360;2023-06-04T11:33:05;95611.28;;;24.12;53.55
34742;BME280;20968;42.696;23.360;2023-06-04T11:35:38;95611.94;;;23.97;53.72
34742;BME280;20968;42.696;23.360;2023-06-04T11:38:05;95612.81;;;23.85;53.36
34742;BME280;20968;42.696;23.360;2023-06-04T11:40:30;95603.66;;;23.56;55.91
34742;BME280;20968;42.696;23.360;2023-06-04T11:42:56;95608.97;;;23.40;56.77
34742;BME280;20968;42.696;23.360;2023-06-04T11:45:22;95605.38;;;23.39;57.13
34742;BME280;20968;42.696;23.360;2023-06-04T11:47:54;95604.59;;;23.31;56.50
34742;BME280;20968;42.696;23.360;2023-06-04T11:50:22;95607.47;;;23.18;56.45
34742;BME280;20968;42.696;23.360;2023-06-04T11:52:48;95616.34;;;23.22;55.62
34742;BME280;20968;42.696;23.360;2023-06-04T11:55:15;95608.78;;;22.97;56.71
34742;BME280;20968;42.696;23.360;2023-06-04T11:57:42;95597.94;;;22.80;57.30
34742;BME280;20968;42.696;23.360;2023-06-04T12:00:08;95611.59;;;22.76;57.68
34742;BME280;20968;42.696;23.360;2023-06-04T12:02:36;95600.22;;;22.62;57.68
34742;BME280;20968;42.696;23.360;2023-06-04T12:05:16;95604.72;;;22.65;57.97
34742;BME280;20968;42.696;23.360;2023-06-04T12:07:43;95609.25;;;22.47;58.43
34742;BME280;20968;42.696;23.360;2023-06-04T12:10:10;95609.56;;;22.44;58.37
34742;BME280;20968;42.696;23.360;2023-06-04T12:12:37;95609.34;;;22.55;58.90
34742;BME280;20968;42.696;23.360;2023-06-04T12:15:03;95613.84;;;22.58;57.51
34742;BME280;20968;42.696;23.360;2023-06-04T12:17:31;95622.00;;;22.69;57.19
34742;BME280;20968;42.696;23.360;2023-06-04T12:19:56;95612.63;;;22.66;57.46
34742;BME280;20968;42.696;23.360;2023-06-04T12:22:24;95617.94;;;22.57;56.46
34742;BME280;20968;42.696;23.360;2023-06-04T12:24:51;95612.13;;;22.55;56.77
34742;BME280;20968;42.696;23.360;2023-06-04T12:27:22;95621.44;;;22.50;57.59
34742;BME280;20968;42.696;23.360;2023-06-04T12:30:03;95625.69;;;22.43;58.87
34742;BME280;20968;42.696;23.360;2023-06-04T12:32:30;95612.38;;;22.44;59.29
34742;BME280;20968;42.696;23.360;2023-06-04T12:34:56;95617.25;;;22.43;59.76
34742;BME280;20968;42.696;23.360;2023-06-04T12:37:24;95615.66;;;22.35;59.34
34742;BME280;20968;42.696;23.360;2023-06-04T12:39:53;95612.94;;;22.42;59.37
34742;BME280;20968;42.696;23.360;2023-06-04T12:42:20;95615.75;;;22.42;59.06
34742;BME280;20968;42.696;23.360;2023-06-04T12:44:46;95623.22;;;22.40;58.08
34742;BME280;20968;42.696;23.360;2023-06-04T12:47:11;95608.84;;;22.30;58.71
34742;BME280;20968;42.696;23.360;2023-06-04T12:49:37;95604.66;;;22.24;59.25
34742;BME280;20968;42.696;23.360;2023-06-04T12:52:03;95602.94;;;22.21;58.84
34742;BME280;20968;42.696;23.360;2023-06-04T12:54:29;95611.34;;;22.21;58.95
34742;BME280;20968;42.696;23.360;2023-06-04T12:56:55;95607.38;;;22.16;58.48
34742;BME280;20968;42.696;23.360;2023-06-04T12:59:24;95617.97;;;22.10;59.23
34742;BME280;20968;42.696;23.360;2023-06-04T13:02:28;95619.34;;;22.30;59.88